sensor_id;sensor_type;location;lat;lon;timestamp;pressure;altitude;pressure_sealevel;temperature;humidity
80137;BME280;69466;55.948;37.484;2023-08-20T00:01:12;99997.22;;;21.03;74.64
80137;BME280;69466;55.948;37.484;2023-08-20T00:03:40;99987.56;;;20.95;74.98
80137;BME280;69466;55.948;37.484;2023-08-20T00:06:07;99982.34;;;20.89;75.47
80137;BME280;69466;55.948;37.484;2023-08-20T00:08:34;99976.00;;;20.83;75.60
80137;BME280;69466;55.948;37.484;2023-08-20T00:11:00;99977.94;;;20.77;75.55
80137;BME280;69466;55.948;37.484;2023-08-20T00:13:26;99990.38;;;20.75;75.17
80137;BME280;69466;55.948;37.484;2023-08-20T00:15:54;99977.66;;;20.74;75.25
80137;BME280;69466;55.948;37.484;2023-08-20T00:18:20;99971.59;;;20.72;74.73
80137;BME280;69466;55.948;37.484;2023-08-20T00:20:46;99970.22;;;20.74;73.66
80137;BME280;69466;55.948;37.484;2023-08-20T00:23:13;99956.72;;;20.68;73.44
80137;BME280;69466;55.948;37.484;2023-08-20T00:25:39;99950.38;;;20.67;73.69
80137;BME280;69466;55.948;37.484;2023-08-20T00:28:05;99958.63;;;20.67;74.20
80137;BME280;69466;55.948;37.484;2023-08-20T00:30:31;99949.84;;;20.65;74.82
80137;BME280;69466;55.948;37.484;2023-08-20T00:32:57;99958.94;;;20.66;75.13
80137;BME280;69466;55.948;37.484;2023-08-20T00:35:23;99947.06;;;20.60;74.78
80137;BME280;69466;55.948;37.484;2023-08-20T00:37:50;99952.31;;;20.62;73.69
80137;BME280;69466;55.948;37.484;2023-08-20T00:40:16;99939.63;;;20.61;73.63
80137;BME280;69466;55.948;37.484;2023-08-20T00:42:42;99937.41;;;20.58;73.41
80137;BME280;69466;55.948;37.484;2023-08-20T00:45:08;99947.91;;;20.61;73.50
80137;BME280;69466;55.948;37.484;2023-08-20T00:47:35;99933.03;;;20.57;73.95
80137;BME280;69466;55.948;37.484;2023-08-20T00:50:02;99939.63;;;20.56;74.69
80137;BME280;69466;55.948;37.484;2023-08-20T00:52:31;99936.59;;;20.52;75.27
80137;BME280;69466;55.948;37.484;2023-08-20T00:54:57;99929.69;;;20.45;75.09
80137;BME280;69466;55.948;37.484;2023-08-20T00:57:23;99948.47;;;20.43;76.16
80137;BME280;69466;55.948;37.484;2023-08-20T00:59:50;99941.84;;;20.39;76.34
80137;BME280;69466;55.948;37.484;2023-08-20T01:02:19;99950.66;;;20.30;76.61
80137;BME280;69466;55.948;37.484;2023-08-20T01:04:47;99936.28;;;20.18;77.21
80137;BME280;69466;55.948;37.484;2023-08-20T01:07:39;99942.63;;;20.19;77.19
80137;BME280;69466;55.948;37.484;2023-08-20T01:12:39;99932.16;;;20.06;77.80
80137;BME280;69466;55.948;37.484;2023-08-20T01:15:06;99927.19;;;19.98;78.35
80137;BME280;69466;55.948;37.484;2023-08-20T01:17:34;99934.63;;;19.97;78.37
80137;BME280;69466;55.948;37.484;2023-08-20T01:20:00;99940.13;;;19.92;78.58
80137;BME280;69466;55.948;37.484;2023-08-20T01:28:29;99924.13;;;19.94;78.99
80137;BME280;69466;55.948;37.484;2023-08-20T01:31:00;99937.38;;;19.92;79.18
80137;BME280;69466;55.948;37.484;2023-08-20T01:33:27;99941.22;;;19.96;78.66
80137;BME280;69466;55.948;37.484;2023-08-20T01:35:54;99932.97;;;19.96;79.39
80137;BME280;69466;55.948;37.484;2023-08-20T01:38:21;99935.72;;;19.96;79.44
80137;BME280;69466;55.948;37.484;2023-08-20T01:40:48;99932.97;;;20.01;79.79
80137;BME280;69466;55.948;37.484;2023-08-20T01:43:15;99926.63;;;20.06;78.96
80137;BME280;69466;55.948;37.484;2023-08-20T01:45:41;99920.03;;;20.02;79.39
80137;BME280;69466;55.948;37.484;2023-08-20T01:48:08;99936.56;;;20.07;79.28
80137;BME280;69466;55.948;37.484;2023-08-20T01:50:35;99919.75;;;20.08;79.19
80137;BME280;69466;55.948;37.484;2023-08-20T01:53:02;99923.31;;;20.09;79.03
80137;BME280;69466;55.948;37.484;2023-08-20T01:55:30;99923.91;;;20.11;79.00
80137;BME280;69466;55.948;37.484;2023-08-20T01:57:56;99915.63;;;20.06;79.20
80137;BME280;69466;55.948;37.484;2023-08-20T02:00:22;99911.19;;;20.05;78.94
80137;BME280;69466;55.948;37.484;2023-08-20T02:02:49;99921.13;;;20.06;79.14
80137;BME280;69466;55.948;37.484;2023-08-20T02:05:15;99910.94;;;20.01;78.94
80137;BME280;69466;55.948;37.484;2023-08-20T02:07:41;99929.13;;;20.07;79.13
80137;BME280;69466;55.948;37.484;2023-08-20T02:10:07;99924.97;;;20.05;78.82
80137;BME280;69466;55.948;37.484;2023-08-20T02:12:35;99930.22;;;20.06;79.31
80137;BME280;69466;55.948;37.484;2023-08-20T02:15:03;99922.78;;;20.07;79.57
80137;BME280;69466;55.948;37.484;2023-08-20T02:17:32;99928.84;;;20.09;78.94
80137;BME280;69466;55.948;37.484;2023-08-20T02:19:58;99934.91;;;20.16;78.67
80137;BME280;69466;55.948;37.484;2023-08-20T02:22:24;99939.03;;;20.18;79.40
80137;BME280;69466;55.948;37.484;2023-08-20T02:24:50;99954.47;;;20.19;79.04
80137;BME280;69466;55.948;37.484;2023-08-20T02:27:16;99946.19;;;20.04;79.24
80137;BME280;69466;55.948;37.484;2023-08-20T02:29:43;99947.56;;;19.91;78.63
80137;BME280;69466;55.948;37.484;2023-08-20T02:32:15;99940.38;;;19.90;78.40
80137;BME280;69466;55.948;37.484;2023-08-20T02:34:41;99951.97;;;19.87;77.87
80137;BME280;69466;55.948;37.484;2023-08-20T02:37:07;99954.13;;;19.85;77.94
80137;BME280;69466;55.948;37.484;2023-08-20T02:39:33;99958.53;;;19.76;77.31
80137;BME280;69466;55.948;37.484;2023-08-20T02:42:01;99943.66;;;19.77;77.46
80137;BME280;69466;55.948;37.484;2023-08-20T02:44:28;99954.13;;;19.85;77.11
80137;BME280;69466;55.948;37.484;2023-08-20T02:46:54;99958.56;;;19.86;76.79
80137;BME280;69466;55.948;37.484;2023-08-20T02:49:21;99955.47;;;19.68;77.63
80137;BME280;69466;55.948;37.484;2023-08-20T02:51:47;99954.63;;;19.62;77.25
80137;BME280;69466;55.948;37.484;2023-08-20T02:54:13;99962.66;;;19.74;76.53
80137;BME280;69466;55.948;37.484;2023-08-20T02:56:39;99971.19;;;19.72;77.19
80137;BME280;69466;55.948;37.484;2023-08-20T02:59:06;99962.94;;;19.77;76.99
80137;BME280;69466;55.948;37.484;2023-08-20T03:01:32;99972.59;;;19.85;76.92
80137;BME280;69466;55.948;37.484;2023-08-20T03:03:58;99974.00;;;19.87;76.15
80137;BME280;69466;55.948;37.484;2023-08-20T03:06:24;99963.81;;;19.93;75.77
80137;BME280;69466;55.948;37.484;2023-08-20T03:08:50;99975.16;;;20.12;74.92
80137;BME280;69466;55.948;37.484;2023-08-20T03:11:16;99974.06;;;20.28;73.98
80137;BME280;69466;55.948;37.484;2023-08-20T03:13:42;99972.72;;;20.51;72.82
80137;BME280;69466;55.948;37.484;2023-08-20T03:16:08;99967.97;;;21.07;71.29
80137;BME280;69466;55.948;37.484;2023-08-20T03:18:34;99952.47;;;21.90;67.37
80137;BME280;69466;55.948;37.484;2023-08-20T03:21:00;99955.63;;;22.85;65.00
80137;BME280;69466;55.948;37.484;2023-08-20T03:23:27;99959.91;;;23.73;61.70
80137;BME280;69466;55.948;37.484;2023-08-20T03:25:53;99948.84;;;24.61;58.11
80137;BME280;69466;55.948;37.484;2023-08-20T03:28:19;99955.03;;;25.45;56.32
80137;BME280;69466;55.948;37.484;2023-08-20T03:30:45;99958.88;;;26.13;53.72
80137;BME280;69466;55.948;37.484;2023-08-20T03:33:15;99966.63;;;26.82;52.12
80137;BME280;69466;55.948;37.484;2023-08-20T03:35:43;99976.41;;;27.33;50.76
80137;BME280;69466;55.948;37.484;2023-08-20T03:38:09;99972.91;;;27.19;50.01
80137;BME280;69466;55.948;37.484;2023-08-20T03:40:35;99980.19;;;26.53;51.51
80137;BME280;69466;55.948;37.484;2023-08-20T03:43:02;99984.66;;;26.04;53.34
80137;BME280;69466;55.948;37.484;2023-08-20T03:45:30;99979.66;;;25.52;54.44
80137;BME280;69466;55.948;37.484;2023-08-20T03:47:57;99970.59;;;25.46;54.75
80137;BME280;69466;55.948;37.484;2023-08-20T03:50:23;99968.53;;;25.11;55.63
80137;BME280;69466;55.948;37.484;2023-08-20T03:52:49;99955.41;;;24.98;56.44
80137;BME280;69466;55.948;37.484;2023-08-20T03:55:16;99953.88;;;24.92;56.65
80137;BME280;69466;55.948;37.484;2023-08-20T03:57:42;99941.44;;;25.03;56.03
80137;BME280;69466;55.948;37.484;2023-08-20T04:00:10;99922.94;;;25.26;55.01
80137;BME280;69466;55.948;37.484;2023-08-20T04:02:45;99907.50;;;25.47;54.37
80137;BME280;69466;55.948;37.484;2023-08-20T04:05:11;99912.72;;;26.12;53.14
80137;BME280;69466;55.948;37.484;2023-08-20T04:07:37;99892.38;;;26.47;51.85
80137;BME280;69466;55.948;37.484;2023-08-20T04:10:04;99877.78;;;26.72;51.24
80137;BME280;69466;55.948;37.484;2023-08-20T04:12:32;99867.56;;;27.29;49.81
80137;BME280;69466;55.948;37.484;2023-08-20T04:14:58;99864.59;;;27.26;49.82
80137;BME280;69466;55.948;37.484;2023-08-20T04:17:24;99860.03;;;27.30;50.17
80137;BME280;69466;55.948;37.484;2023-08-20T04:19:52;99851.13;;;27.11;49.74
80137;BME280;69466;55.948;37.484;2023-08-20T04:22:18;99839.31;;;26.74;50.59
80137;BME280;69466;55.948;37.484;2023-08-20T04:24:44;99830.16;;;26.43;51.56
80137;BME280;69466;55.948;37.484;2023-08-20T04:27:10;99840.28;;;26.17;52.94
80137;BME280;69466;55.948;37.484;2023-08-20T04:29:39;99840.47;;;25.62;54.40
80137;BME280;69466;55.948;37.484;2023-08-20T04:32:05;99833.00;;;25.35;54.78
80137;BME280;69466;55.948;37.484;2023-08-20T04:34:32;99844.97;;;24.95;56.21
80137;BME280;69466;55.948;37.484;2023-08-20T04:36:58;99849.47;;;24.63;57.65
80137;BME280;69466;55.948;37.484;2023-08-20T04:39:24;99849.19;;;24.33;58.65
80137;BME280;69466;55.948;37.484;2023-08-20T04:41:53;99849.28;;;24.09;59.24
80137;BME280;69466;55.948;37.484;2023-08-20T04:44:21;99853.13;;;23.94;60.47
80137;BME280;69466;55.948;37.484;2023-08-20T04:46:49;99860.06;;;23.78;61.09
80137;BME280;69466;55.948;37.484;2023-08-20T04:49:14;99863.84;;;23.45;62.12
80137;BME280;69466;55.948;37.484;2023-08-20T04:51:40;99859.75;;;23.18;63.25
80137;BME280;69466;55.948;37.484;2023-08-20T04:54:06;99867.19;;;22.99;63.79
80137;BME280;69466;55.948;37.484;2023-08-20T04:56:32;99859.47;;;22.96;64.68
80137;BME280;69466;55.948;37.484;2023-08-20T04:58:59;99838.44;;;22.95;64.82
80137;BME280;69466;55.948;37.484;2023-08-20T05:01:43;99849.06;;;23.30;63.59
80137;BME280;69466;55.948;37.484;2023-08-20T05:04:11;99839.22;;;23.62;62.97
80137;BME280;69466;55.948;37.484;2023-08-20T05:06:38;99838.81;;;24.06;61.85
80137;BME280;69466;55.948;37.484;2023-08-20T05:09:04;99834.56;;;24.59;59.85
80137;BME280;69466;55.948;37.484;2023-08-20T05:11:30;99837.53;;;24.63;59.88
80137;BME280;69466;55.948;37.484;2023-08-20T05:13:58;99850.84;;;24.93;59.19
80137;BME280;69466;55.948;37.484;2023-08-20T05:16:24;99842.63;;;25.15;58.73
80137;BME280;69466;55.948;37.484;2023-08-20T05:18:50;99843.78;;;25.50;57.75
80137;BME280;69466;55.948;37.484;2023-08-20T05:21:16;99839.41;;;25.72;57.82
80137;BME280;69466;55.948;37.484;2023-08-20T05:23:42;99835.09;;;25.79;57.38
80137;BME280;69466;55.948;37.484;2023-08-20T05:26:08;99830.66;;;26.00;57.06
80137;BME280;69466;55.948;37.484;2023-08-20T05:28:34;99833.00;;;26.07;56.84
80137;BME280;69466;55.948;37.484;2023-08-20T05:31:00;99822.00;;;26.02;57.00
80137;BME280;69466;55.948;37.484;2023-08-20T05:33:27;99827.31;;;26.12;56.82
80137;BME280;69466;55.948;37.484;2023-08-20T05:35:54;99827.31;;;26.34;55.95
80137;BME280;69466;55.948;37.484;2023-08-20T05:38:22;99823.41;;;26.66;55.66
80137;BME280;69466;55.948;37.484;2023-08-20T05:40:50;99832.50;;;26.58;55.08
80137;BME280;69466;55.948;37.484;2023-08-20T05:43:16;99831.16;;;26.47;55.37
80137;BME280;69466;55.948;37.484;2023-08-20T05:45:42;99822.84;;;26.25;55.58
80137;BME280;69466;55.948;37.484;2023-08-20T05:48:11;99831.44;;;25.92;56.75
80137;BME280;69466;55.948;37.484;2023-08-20T05:50:37;99823.38;;;25.91;56.42
80137;BME280;69466;55.948;37.484;2023-08-20T05:53:04;99810.06;;;25.79;56.98
80137;BME280;69466;55.948;37.484;2023-08-20T05:55:32;99831.75;;;25.55;58.10
80137;BME280;69466;55.948;37.484;2023-08-20T05:57:59;99827.63;;;25.66;57.35
80137;BME280;69466;55.948;37.484;2023-08-20T06:00:26;99831.50;;;26.01;57.02
80137;BME280;69466;55.948;37.484;2023-08-20T06:02:52;99815.94;;;26.22;55.54
80137;BME280;69466;55.948;37.484;2023-08-20T06:05:18;99823.06;;;26.37;54.98
80137;BME280;69466;55.948;37.484;2023-08-20T06:07:44;99827.59;;;26.55;54.43
80137;BME280;69466;55.948;37.484;2023-08-20T06:10:11;99827.34;;;26.74;54.12
80137;BME280;69466;55.948;37.484;2023-08-20T06:12:40;99826.22;;;27.14;53.67
80137;BME280;69466;55.948;37.484;2023-08-20T06:15:06;99822.28;;;27.24;52.83
80137;BME280;69466;55.948;37.484;2023-08-20T06:17:33;99821.00;;;27.30;52.70
80137;BME280;69466;55.948;37.484;2023-08-20T06:19:59;99824.94;;;27.29;51.75
80137;BME280;69466;55.948;37.484;2023-08-20T06:22:25;99825.75;;;27.29;51.71
80137;BME280;69466;55.948;37.484;2023-08-20T06:24:51;99809.75;;;27.78;50.29
80137;BME280;69466;55.948;37.484;2023-08-20T06:27:18;99814.34;;;28.00;49.91
80137;BME280;69466;55.948;37.484;2023-08-20T06:29:44;99817.00;;;28.60;48.72
80137;BME280;69466;55.948;37.484;2023-08-20T06:32:10;99817.94;;;28.81;47.90
80137;BME280;69466;55.948;37.484;2023-08-20T06:34:36;99820.03;;;29.22;47.06
80137;BME280;69466;55.948;37.484;2023-08-20T06:37:03;99810.47;;;29.32;46.83
80137;BME280;69466;55.948;37.484;2023-08-20T06:39:29;99820.91;;;29.43;46.60
80137;BME280;69466;55.948;37.484;2023-08-20T06:41:55;99808.75;;;29.81;45.27
80137;BME280;69466;55.948;37.484;2023-08-20T06:44:22;99805.69;;;29.94;44.63
80137;BME280;69466;55.948;37.484;2023-08-20T06:46:48;99811.00;;;30.08;44.57
80137;BME280;69466;55.948;37.484;2023-08-20T06:49:14;99803.72;;;29.95;44.66
80137;BME280;69466;55.948;37.484;2023-08-20T06:51:40;99804.38;;;30.13;44.84
80137;BME280;69466;55.948;37.484;2023-08-20T06:54:08;99798.25;;;29.99;44.53
80137;BME280;69466;55.948;37.484;2023-08-20T06:56:34;99799.72;;;30.17;44.45
80137;BME280;69466;55.948;37.484;2023-08-20T06:59:00;99801.75;;;30.28;44.43
80137;BME280;69466;55.948;37.484;2023-08-20T07:01:28;99793.03;;;30.09;44.44
80137;BME280;69466;55.948;37.484;2023-08-20T07:03:54;99795.63;;;30.47;44.25
80137;BME280;69466;55.948;37.484;2023-08-20T07:06:20;99788.28;;;30.55;43.82
80137;BME280;69466;55.948;37.484;2023-08-20T07:08:46;99804.03;;;30.47;44.27
80137;BME280;69466;55.948;37.484;2023-08-20T07:11:12;99793.09;;;30.91;43.15
80137;BME280;69466;55.948;37.484;2023-08-20T07:13:38;99793.19;;;30.94;43.14
80137;BME280;69466;55.948;37.484;2023-08-20T07:16:04;99793.94;;;31.03;42.75
80137;BME280;69466;55.948;37.484;2023-08-20T07:18:31;99782.56;;;31.00;43.19
80137;BME280;69466;55.948;37.484;2023-08-20T07:20:57;99789.38;;;30.74;44.03
80137;BME280;69466;55.948;37.484;2023-08-20T07:23:23;99787.84;;;31.13;42.95
80137;BME280;69466;55.948;37.484;2023-08-20T07:25:50;99789.84;;;31.25;43.13
80137;BME280;69466;55.948;37.484;2023-08-20T07:28:18;99786.44;;;30.95;43.66
80137;BME280;69466;55.948;37.484;2023-08-20T07:31:07;99778.69;;;31.53;42.08
80137;BME280;69466;55.948;37.484;2023-08-20T07:33:33;99761.88;;;31.81;41.53
80137;BME280;69466;55.948;37.484;2023-08-20T07:35:59;99771.00;;;32.05;41.16
80137;BME280;69466;55.948;37.484;2023-08-20T07:38:25;99776.88;;;32.28;41.28
80137;BME280;69466;55.948;37.484;2023-08-20T07:40:51;99771.06;;;32.21;40.58
80137;BME280;69466;55.948;37.484;2023-08-20T07:43:17;99778.69;;;32.08;41.20
80137;BME280;69466;55.948;37.484;2023-08-20T07:45:43;99766.38;;;32.25;40.97
80137;BME280;69466;55.948;37.484;2023-08-20T07:48:09;99772.84;;;32.88;40.13
80137;BME280;69466;55.948;37.484;2023-08-20T07:50:35;99763.38;;;33.47;38.05
80137;BME280;69466;55.948;37.484;2023-08-20T07:53:01;99764.50;;;33.62;37.98
80137;BME280;69466;55.948;37.484;2023-08-20T07:55:27;99756.09;;;33.81;38.13
80137;BME280;69466;55.948;37.484;2023-08-20T07:57:53;99750.75;;;33.95;37.39
80137;BME280;69466;55.948;37.484;2023-08-20T08:00:19;99762.16;;;33.83;37.97
80137;BME280;69466;55.948;37.484;2023-08-20T08:02:45;99768.59;;;34.03;38.05
80137;BME280;69466;55.948;37.484;2023-08-20T08:05:10;99753.03;;;34.51;36.32
80137;BME280;69466;55.948;37.484;2023-08-20T08:07:38;99762.78;;;34.34;36.43
80137;BME280;69466;55.948;37.484;2023-08-20T08:10:04;99753.75;;;34.25;36.87
80137;BME280;69466;55.948;37.484;2023-08-20T08:12:31;99747.25;;;33.63;37.04
80137;BME280;69466;55.948;37.484;2023-08-20T08:14:57;99754.28;;;33.54;38.33
80137;BME280;69466;55.948;37.484;2023-08-20T08:17:23;99750.06;;;33.63;38.20
80137;BME280;69466;55.948;37.484;2023-08-20T08:19:49;99748.72;;;33.57;38.19
80137;BME280;69466;55.948;37.484;2023-08-20T08:22:15;99744.19;;;33.33;38.58
80137;BME280;69466;55.948;37.484;2023-08-20T08:24:41;99725.06;;;33.23;38.58
80137;BME280;69466;55.948;37.484;2023-08-20T08:27:08;99736.09;;;32.97;39.47
80137;BME280;69466;55.948;37.484;2023-08-20T08:29:34;99733.56;;;32.61;39.77
80137;BME280;69466;55.948;37.484;2023-08-20T08:32:00;99726.66;;;31.83;41.08
80137;BME280;69466;55.948;37.484;2023-08-20T08:34:26;99720.13;;;31.79;41.61
80137;BME280;69466;55.948;37.484;2023-08-20T08:36:52;99720.31;;;31.86;41.56
80137;BME280;69466;55.948;37.484;2023-08-20T08:39:18;99714.97;;;31.81;40.92
80137;BME280;69466;55.948;37.484;2023-08-20T08:41:48;99704.47;;;31.78;41.56
80137;BME280;69466;55.948;37.484;2023-08-20T08:44:16;99714.97;;;31.81;41.92
80137;BME280;69466;55.948;37.484;2023-08-20T08:46:42;99705.34;;;31.54;41.49
80137;BME280;69466;55.948;37.484;2023-08-20T08:49:08;99710.16;;;31.66;41.74
80137;BME280;69466;55.948;37.484;2023-08-20T08:51:36;99715.09;;;31.45;42.32
80137;BME280;69466;55.948;37.484;2023-08-20T08:54:03;99710.59;;;31.28;41.69
80137;BME280;69466;55.948;37.484;2023-08-20T08:56:29;99695.44;;;31.17;40.53
80137;BME280;69466;55.948;37.484;2023-08-20T08:58:55;99693.25;;;31.10;39.74
80137;BME280;69466;55.948;37.484;2023-08-20T09:01:21;99711.81;;;30.66;39.85
80137;BME280;69466;55.948;37.484;2023-08-20T09:03:47;99723.16;;;30.58;39.87
80137;BME280;69466;55.948;37.484;2023-08-20T09:06:14;99718.97;;;30.64;39.47
80137;BME280;69466;55.948;37.484;2023-08-20T09:08:39;99716.63;;;30.54;40.06
80137;BME280;69466;55.948;37.484;2023-08-20T09:11:05;99716.72;;;30.45;39.82
80137;BME280;69466;55.948;37.484;2023-08-20T09:13:40;99716.56;;;30.29;40.60
80137;BME280;69466;55.948;37.484;2023-08-20T09:16:07;99720.19;;;30.30;39.98
80137;BME280;69466;55.948;37.484;2023-08-20T09:18:41;99726.03;;;30.37;39.68
80137;BME280;69466;55.948;37.484;2023-08-20T09:21:11;99714.56;;;30.18;40.45
80137;BME280;69466;55.948;37.484;2023-08-20T09:23:37;99718.09;;;30.27;40.81
80137;BME280;69466;55.948;37.484;2023-08-20T09:26:05;99711.50;;;29.99;41.70
80137;BME280;69466;55.948;37.484;2023-08-20T09:28:42;99702.31;;;30.10;41.59
80137;BME280;69466;55.948;37.484;2023-08-20T09:31:08;99685.97;;;30.00;41.60
80137;BME280;69466;55.948;37.484;2023-08-20T09:33:34;99681.91;;;30.10;41.34
80137;BME280;69466;55.948;37.484;2023-08-20T09:36:03;99682.72;;;30.22;40.70
80137;BME280;69466;55.948;37.484;2023-08-20T09:38:36;99684.97;;;30.53;40.35
80137;BME280;69466;55.948;37.484;2023-08-20T09:41:05;99675.06;;;30.68;39.98
80137;BME280;69466;55.948;37.484;2023-08-20T09:43:38;99674.03;;;30.60;39.61
80137;BME280;69466;55.948;37.484;2023-08-20T09:46:05;99679.25;;;30.37;40.20
80137;BME280;69466;55.948;37.484;2023-08-20T09:48:35;99685.78;;;30.42;39.76
80137;BME280;69466;55.948;37.484;2023-08-20T09:51:11;99686.13;;;30.40;40.82
80137;BME280;69466;55.948;37.484;2023-08-20T09:53:45;99692.66;;;30.32;41.08
80137;BME280;69466;55.948;37.484;2023-08-20T09:56:29;99679.00;;;30.06;40.95
80137;BME280;69466;55.948;37.484;2023-08-20T09:59:00;99682.78;;;29.89;41.81
80137;BME280;69466;55.948;37.484;2023-08-20T10:01:27;99686.28;;;29.66;42.01
80137;BME280;69466;55.948;37.484;2023-08-20T10:03:53;99684.88;;;29.60;41.85
80137;BME280;69466;55.948;37.484;2023-08-20T10:09:05;99672.69;;;29.43;42.08
80137;BME280;69466;55.948;37.484;2023-08-20T10:11:32;99666.09;;;29.27;42.09
80137;BME280;69466;55.948;37.484;2023-08-20T10:13:58;99666.09;;;29.27;42.27
80137;BME280;69466;55.948;37.484;2023-08-20T10:16:27;99657.91;;;29.22;42.32
80137;BME280;69466;55.948;37.484;2023-08-20T10:18:53;99657.06;;;29.22;42.47
80137;BME280;69466;55.948;37.484;2023-08-20T10:21:24;99649.75;;;29.29;42.75
80137;BME280;69466;55.948;37.484;2023-08-20T10:23:50;99635.00;;;29.08;42.94
80137;BME280;69466;55.948;37.484;2023-08-20T10:26:20;99635.34;;;28.86;43.40
80137;BME280;69466;55.948;37.484;2023-08-20T10:28:47;99628.66;;;28.78;43.16
80137;BME280;69466;55.948;37.484;2023-08-20T10:31:16;99624.09;;;28.74;43.27
80137;BME280;69466;55.948;37.484;2023-08-20T10:33:55;99624.56;;;28.76;43.74
80137;BME280;69466;55.948;37.484;2023-08-20T10:36:23;99624.47;;;28.63;44.01
80137;BME280;69466;55.948;37.484;2023-08-20T10:38:56;99615.72;;;28.65;44.00
80137;BME280;69466;55.948;37.484;2023-08-20T10:41:25;99614.13;;;28.64;44.35
80137;BME280;69466;55.948;37.484;2023-08-20T10:43:52;99605.59;;;28.60;44.11
80137;BME280;69466;55.948;37.484;2023-08-20T10:46:20;99605.94;;;28.59;43.98
80137;BME280;69466;55.948;37.484;2023-08-20T10:48:48;99618.53;;;28.65;43.79
80137;BME280;69466;55.948;37.484;2023-08-20T10:51:17;99618.03;;;28.72;44.33
80137;BME280;69466;55.948;37.484;2023-08-20T10:56:44;99614.47;;;28.83;43.88
80137;BME280;69466;55.948;37.484;2023-08-20T10:59:21;99613.13;;;28.89;43.64
80137;BME280;69466;55.948;37.484;2023-08-20T11:01:50;99594.19;;;28.95;43.63
80137;BME280;69466;55.948;37.484;2023-08-20T11:04:18;99600.44;;;29.13;43.82
80137;BME280;69466;55.948;37.484;2023-08-20T11:06:45;99600.94;;;29.15;43.44
80137;BME280;69466;55.948;37.484;2023-08-20T11:09:12;99592.66;;;29.18;42.99
80137;BME280;69466;55.948;37.484;2023-08-20T11:11:42;99597.22;;;29.23;42.79
80137;BME280;69466;55.948;37.484;2023-08-20T11:14:13;99597.78;;;29.37;42.36
80137;BME280;69466;55.948;37.484;2023-08-20T11:16:43;99594.41;;;29.43;42.26
80137;BME280;69466;55.948;37.484;2023-08-20T11:19:09;99594.34;;;29.11;45.46
80137;BME280;69466;55.948;37.484;2023-08-20T11:21:38;99591.94;;;28.38;48.98
80137;BME280;69466;55.948;37.484;2023-08-20T11:24:05;99591.97;;;27.92;52.15
80137;BME280;69466;55.948;37.484;2023-08-20T11:26:33;99597.84;;;27.61;53.47
80137;BME280;69466;55.948;37.484;2023-08-20T11:29:01;99601.81;;;27.34;55.13
80137;BME280;69466;55.948;37.484;2023-08-20T11:31:27;99590.03;;;27.20;56.09
80137;BME280;69466;55.948;37.484;2023-08-20T11:33:56;99604.16;;;27.06;56.92
80137;BME280;69466;55.948;37.484;2023-08-20T11:36:22;99593.47;;;26.82;59.84
80137;BME280;69466;55.948;37.484;2023-08-20T11:38:50;99571.66;;;26.59;59.36
80137;BME280;69466;55.948;37.484;2023-08-20T11:41:18;99579.34;;;26.36;59.26
80137;BME280;69466;55.948;37.484;2023-08-20T11:43:46;99574.25;;;26.29;59.35
80137;BME280;69466;55.948;37.484;2023-08-20T11:46:20;99578.94;;;26.12;59.57
80137;BME280;69466;55.948;37.484;2023-08-20T11:51:26;99569.09;;;26.06;59.81
80137;BME280;69466;55.948;37.484;2023-08-20T11:53:52;99552.06;;;25.98;60.31
80137;BME280;69466;55.948;37.484;2023-08-20T11:56:18;99561.69;;;25.92;61.56
80137;BME280;69466;55.948;37.484;2023-08-20T11:58:52;99569.25;;;26.00;61.88
80137;BME280;69466;55.948;37.484;2023-08-20T12:01:19;99571.13;;;25.83;60.68
80137;BME280;69466;55.948;37.484;2023-08-20T12:03:46;99574.06;;;25.47;58.51
80137;BME280;69466;55.948;37.484;2023-08-20T12:06:19;99592.56;;;25.07;59.52
80137;BME280;69466;55.948;37.484;2023-08-20T12:08:46;99582.16;;;24.90;59.60
80137;BME280;69466;55.948;37.484;2023-08-20T12:11:12;99610.25;;;24.75;60.72
80137;BME280;69466;55.948;37.484;2023-08-20T12:13:38;99618.78;;;24.79;61.42
80137;BME280;69466;55.948;37.484;2023-08-20T12:16:08;99632.84;;;24.46;63.51
80137;BME280;69466;55.948;37.484;2023-08-20T12:18:34;99644.25;;;24.31;64.39
80137;BME280;69466;55.948;37.484;2023-08-20T12:21:01;99631.28;;;23.99;66.32
80137;BME280;69466;55.948;37.484;2023-08-20T12:23:27;99613.50;;;23.87;67.29
80137;BME280;69466;55.948;37.484;2023-08-20T12:25:53;99599.41;;;23.56;68.46
80137;BME280;69466;55.948;37.484;2023-08-20T12:28:19;99593.34;;;23.54;68.99
80137;BME280;69466;55.948;37.484;2023-08-20T12:30:45;99613.19;;;23.42;69.10
80137;BME280;69466;55.948;37.484;2023-08-20T12:33:11;99623.91;;;23.49;69.66
80137;BME280;69466;55.948;37.484;2023-08-20T12:35:37;99622.19;;;23.34;69.77
80137;BME280;69466;55.948;37.484;2023-08-20T12:38:04;99645.38;;;23.38;70.29
80137;BME280;69466;55.948;37.484;2023-08-20T12:40:30;99647.53;;;23.27;70.97
80137;BME280;69466;55.948;37.484;2023-08-20T12:42:56;99656.16;;;23.07;72.00
80137;BME280;69466;55.948;37.484;2023-08-20T12:45:22;99662.66;;;22.97;72.24
80137;BME280;69466;55.948;37.484;2023-08-20T12:47:48;99664.00;;;22.81;72.92
80137;BME280;69466;55.948;37.484;2023-08-20T12:50:14;99648.81;;;22.79;72.71
80137;BME280;69466;55.948;37.484;2023-08-20T12:52:40;99654.19;;;22.70;73.39
80137;BME280;69466;55.948;37.484;2023-08-20T12:55:07;99651.19;;;22.67;74.28
80137;BME280;69466;55.948;37.484;2023-08-20T12:57:34;99650.06;;;22.68;74.14
80137;BME280;69466;55.948;37.484;2023-08-20T13:00:00;99640.03;;;22.53;74.43
80137;BME280;69466;55.948;37.484;2023-08-20T13:02:29;99630.38;;;22.50;75.06
80137;BME280;69466;55.948;37.484;2023-08-20T13:04:55;99622.16;;;22.45;75.31
80137;BME280;69466;55.948;37.484;2023-08-20T13:07:21;99614.97;;;22.44;75.48